Tecumseh, Kansas
Current Conditions -  °F | °C
As of 10:00 AM on Friday 21 Nov 2014 (Local Time) from KTOP Reporting Station
Broken Clouds Broken Clouds  
Wind Chill: 29°   Ceiling: 1200
Heat Index: 37°   Visibility: 10mi
Dew Point: 23°   Wind: 13mph
Humidity: 57%   Direction: 120°ESE
Pressure: 30.2"   Gusts: NA
Location:  39.05°N, 95.58°W
Report Text: KTOP 211600Z 12011KT 10SM BKN012 03/M05 A3020 RMK AO2 T00281050
Loading
Personal Weather Stations






























Interactive Weather Map New forecast layout! Learn more

10-Day Weather Forecast

Advertisements
Track Severe Weather on mobile